createdAt,value
2017-02-16T00:00:54.195Z,1032.3
2017-02-16T00:01:56.703Z,1032.3
2017-02-16T00:02:59.168Z,1032.3
2017-02-16T00:04:01.629Z,1032.3
2017-02-16T00:05:04.608Z,1032.3
2017-02-16T00:06:07.073Z,1032.2
2017-02-16T00:07:09.397Z,1032.2
2017-02-16T00:08:11.874Z,1032.2
2017-02-16T00:09:14.334Z,1032.2
2017-02-16T00:10:16.803Z,1032.2
2017-02-16T00:11:19.276Z,1032.2
2017-02-16T00:12:21.748Z,1032.2
2017-02-16T00:14:26.951Z,1032.1
2017-02-16T00:15:29.754Z,1032.2
2017-02-16T00:17:34.637Z,1032.2
2017-02-16T00:18:37.116Z,1032.2
2017-02-16T00:19:39.573Z,1032.2
2017-02-16T00:20:42.046Z,1032.2
2017-02-16T00:21:44.514Z,1032.2
2017-02-16T00:22:46.984Z,1032.2
2017-02-16T00:23:49.448Z,1032.2
2017-02-16T00:24:51.924Z,1032.2
2017-02-16T00:25:54.412Z,1032.2
2017-02-16T00:27:59.790Z,1032.2
2017-02-16T00:29:02.253Z,1032.2
2017-02-16T00:30:04.724Z,1032.2
2017-02-16T00:31:07.017Z,1032.2
2017-02-16T00:32:09.984Z,1032.2
2017-02-16T00:33:12.467Z,1032.2
2017-02-16T00:34:14.595Z,1032.2
2017-02-16T00:35:17.078Z,1032.2
2017-02-16T00:36:19.870Z,1032.2
2017-02-16T00:37:22.331Z,1032.2
2017-02-16T00:38:24.788Z,1032.2
2017-02-16T00:39:27.254Z,1032.2
2017-02-16T00:40:29.726Z,1032.2
2017-02-16T00:41:32.189Z,1032.1
2017-02-16T00:42:34.980Z,1032.1
2017-02-16T00:44:39.859Z,1032.1
2017-02-16T00:45:42.331Z,1032.1
2017-02-16T00:48:50.111Z,1032.2
2017-02-16T00:51:57.399Z,1032.1
2017-02-16T00:52:59.874Z,1032.1
2017-02-16T00:54:02.336Z,1032.1
2017-02-16T00:55:04.804Z,1032.1
2017-02-16T00:56:07.319Z,1032.1
2017-02-16T00:57:10.121Z,1032.1
2017-02-16T00:59:15.023Z,1032.1
2017-02-16T01:00:17.489Z,1032.2
2017-02-16T01:01:19.962Z,1032.1
2017-02-16T01:02:22.777Z,1032.1
2017-02-16T01:03:25.238Z,1032.1
2017-02-16T01:04:27.705Z,1032.2
2017-02-16T01:05:30.163Z,1032.1
2017-02-16T01:06:32.620Z,1032.1
2017-02-16T01:08:37.481Z,1032.1
2017-02-16T01:14:52.971Z,1032
2017-02-16T01:15:55.432Z,1032
2017-02-16T01:23:12.665Z,1032
2017-02-16T01:26:20.278Z,1032
2017-02-16T01:27:23.072Z,1032.1
2017-02-16T01:28:25.540Z,1032
2017-02-16T01:29:27.991Z,1032.1
2017-02-16T01:30:30.311Z,1032
2017-02-16T01:31:32.764Z,1032
2017-02-16T01:32:35.225Z,1032.1
2017-02-16T01:33:38.185Z,1032
2017-02-16T01:34:40.641Z,1032
2017-02-16T01:36:45.523Z,1032
2017-02-16T01:37:47.991Z,1032
2017-02-16T01:39:52.864Z,1032
2017-02-16T01:43:00.472Z,1032
2017-02-16T01:44:02.933Z,1031.9
2017-02-16T01:46:08.302Z,1032
2017-02-16T01:47:10.604Z,1032
2017-02-16T01:48:13.081Z,1031.9
2017-02-16T02:04:53.203Z,1031.9
2017-02-16T02:05:55.659Z,1031.9
2017-02-16T02:06:58.120Z,1031.9
2017-02-16T02:08:00.580Z,1031.8
2017-02-16T02:09:03.395Z,1031.8
2017-02-16T02:10:05.860Z,1031.8
2017-02-16T02:11:08.505Z,1031.8
2017-02-16T02:12:10.962Z,1031.8
2017-02-16T02:13:13.436Z,1031.7
2017-02-16T02:16:20.725Z,1031.8
2017-02-16T02:17:23.190Z,1031.8
2017-02-16T02:18:26.176Z,1031.7
2017-02-16T02:19:28.477Z,1031.7
2017-02-16T02:20:30.946Z,1031.8
2017-02-16T02:21:33.405Z,1031.8
2017-02-16T02:22:35.887Z,1031.8
2017-02-16T02:23:38.357Z,1031.7
2017-02-16T02:24:40.840Z,1031.7
2017-02-16T02:25:43.306Z,1031.7
2017-02-16T02:26:45.773Z,1031.8
2017-02-16T02:28:51.151Z,1031.7
2017-02-16T02:29:53.614Z,1031.7
2017-02-16T02:30:56.076Z,1031.7
2017-02-16T02:31:58.553Z,1031.7
2017-02-16T02:33:01.058Z,1031.7
2017-02-16T02:34:03.519Z,1031.7
2017-02-16T02:35:05.984Z,1031.7
2017-02-16T02:36:08.444Z,1031.7
2017-02-16T02:37:10.919Z,1031.7
2017-02-16T02:38:13.401Z,1031.7
2017-02-16T02:39:16.362Z,1031.7
2017-02-16T02:40:18.845Z,1031.7
2017-02-16T02:41:21.331Z,1031.7
2017-02-16T02:42:23.813Z,1031.7
2017-02-16T02:43:26.280Z,1031.6
2017-02-16T02:44:28.773Z,1031.6
2017-02-16T02:45:31.261Z,1031.6
2017-02-16T02:48:38.544Z,1031.6
2017-02-16T02:49:41.340Z,1031.6
2017-02-16T02:50:43.831Z,1031.6
2017-02-16T02:51:46.296Z,1031.6
2017-02-16T02:52:48.794Z,1031.6
2017-02-16T02:53:51.266Z,1031.6
2017-02-16T02:54:53.755Z,1031.5
2017-02-16T02:55:56.215Z,1031.5
2017-02-16T02:56:58.711Z,1031.5
2017-02-16T02:58:01.189Z,1031.5
2017-02-16T02:59:03.665Z,1031.5
2017-02-16T03:00:06.125Z,1031.5
2017-02-16T03:01:08.949Z,1031.5
2017-02-16T03:02:11.417Z,1031.6
2017-02-16T03:03:13.875Z,1031.6
2017-02-16T03:04:16.340Z,1031.6
2017-02-16T03:05:18.808Z,1031.5
2017-02-16T03:06:21.289Z,1031.6
2017-02-16T03:07:23.765Z,1031.6
2017-02-16T03:08:26.222Z,1031.5
2017-02-16T03:09:28.694Z,1031.6
2017-02-16T03:10:31.668Z,1031.6
2017-02-16T03:11:34.130Z,1031.6
2017-02-16T03:12:36.604Z,1031.6
2017-02-16T03:13:39.069Z,1031.6
2017-02-16T03:15:43.813Z,1031.6
2017-02-16T03:16:46.282Z,1031.6
2017-02-16T03:17:48.767Z,1031.6
2017-02-16T03:18:51.602Z,1031.6
2017-02-16T03:19:54.070Z,1031.6
2017-02-16T03:20:56.530Z,1031.6
2017-02-16T03:21:58.992Z,1031.6
2017-02-16T03:23:01.463Z,1031.6
2017-02-16T03:24:03.933Z,1031.6
2017-02-16T03:26:08.817Z,1031.7
2017-02-16T03:42:49.199Z,1031.6
2017-02-16T03:43:51.664Z,1031.6
2017-02-16T03:44:54.173Z,1031.6
2017-02-16T03:58:26.993Z,1031.5
2017-02-16T04:02:36.836Z,1031.6
2017-02-16T04:03:39.305Z,1031.5
2017-02-16T04:05:44.195Z,1031.6
2017-02-16T04:06:46.663Z,1031.5
2017-02-16T04:07:49.135Z,1031.5
2017-02-16T04:08:52.116Z,1031.6
2017-02-16T04:09:54.592Z,1031.6
2017-02-16T04:11:59.458Z,1031.6
2017-02-16T04:13:01.935Z,1031.6
2017-02-16T04:14:04.409Z,1031.6
2017-02-16T04:15:06.893Z,1031.6
2017-02-16T04:16:09.359Z,1031.7
2017-02-16T04:17:12.167Z,1031.7
2017-02-16T04:18:14.480Z,1031.6
2017-02-16T04:19:16.945Z,1031.6
2017-02-16T04:20:19.441Z,1031.6
2017-02-16T04:21:21.902Z,1031.6
2017-02-16T04:22:24.363Z,1031.6
2017-02-16T04:23:26.891Z,1031.6
2017-02-16T04:24:29.690Z,1031.6
2017-02-16T04:25:31.985Z,1031.7
2017-02-16T04:26:34.458Z,1031.7
2017-02-16T04:46:22.227Z,1031.5
2017-02-16T04:47:24.687Z,1031.5
2017-02-16T04:48:27.149Z,1031.5
2017-02-16T04:49:29.618Z,1031.5
2017-02-16T04:50:32.087Z,1031.5
2017-02-16T04:54:42.109Z,1031.5
2017-02-16T05:12:24.995Z,1031.6
2017-02-16T05:13:27.460Z,1031.6
2017-02-16T05:14:29.939Z,1031.6
2017-02-16T05:15:32.412Z,1031.6
2017-02-16T05:22:49.655Z,1031.6
2017-02-16T05:24:55.026Z,1031.5
2017-02-16T05:25:57.495Z,1031.6
2017-02-16T05:26:59.955Z,1031.5
2017-02-16T05:28:02.415Z,1031.5
2017-02-16T05:38:27.533Z,1031.5
2017-02-16T05:39:30.000Z,1031.5
2017-02-16T05:40:32.460Z,1031.5
2017-02-16T05:41:34.917Z,1031.5
2017-02-16T05:42:37.390Z,1031.4
2017-02-16T05:43:39.847Z,1031.4
2017-02-16T05:44:42.331Z,1031.5
2017-02-16T05:45:45.150Z,1031.5
2017-02-16T05:46:47.630Z,1031.5
2017-02-16T05:47:50.088Z,1031.4
2017-02-16T05:48:52.565Z,1031.5
2017-02-16T05:49:54.860Z,1031.4
2017-02-16T05:50:57.676Z,1031.5
2017-02-16T05:52:00.134Z,1031.5
2017-02-16T05:53:02.609Z,1031.5
2017-02-16T05:54:04.913Z,1031.6
2017-02-16T05:55:07.377Z,1031.5
2017-02-16T05:56:09.847Z,1031.6
2017-02-16T05:57:12.808Z,1031.5
2017-02-16T05:58:15.277Z,1031.5
2017-02-16T05:59:17.781Z,1031.5
2017-02-16T06:01:22.494Z,1031.5
2017-02-16T06:02:24.979Z,1031.5
2017-02-16T06:03:27.443Z,1031.5
2017-02-16T06:04:29.905Z,1031.5
2017-02-16T06:05:32.869Z,1031.5
2017-02-16T06:06:35.330Z,1031.4
2017-02-16T06:07:37.795Z,1031.4
2017-02-16T06:08:40.268Z,1031.4
2017-02-16T06:10:45.142Z,1031.5
2017-02-16T06:11:47.606Z,1031.5
2017-02-16T06:12:50.404Z,1031.5
2017-02-16T06:13:52.866Z,1031.5
2017-02-16T06:14:55.340Z,1031.5
2017-02-16T06:15:57.825Z,1031.5
2017-02-16T06:17:00.286Z,1031.5
2017-02-16T06:18:02.795Z,1031.5
2017-02-16T06:19:05.288Z,1031.6
2017-02-16T06:20:07.751Z,1031.6
2017-02-16T06:21:10.215Z,1031.6
2017-02-16T06:22:12.715Z,1031.6
2017-02-16T06:24:17.926Z,1031.6
2017-02-16T06:26:22.844Z,1031.6
2017-02-16T06:27:25.321Z,1031.6
2017-02-16T06:28:27.806Z,1031.6
2017-02-16T06:29:30.293Z,1031.6
2017-02-16T06:30:32.793Z,1031.6
2017-02-16T06:31:35.282Z,1031.6
2017-02-16T06:32:37.606Z,1031.6
2017-02-16T06:33:40.071Z,1031.6
2017-02-16T06:34:43.051Z,1031.6
2017-02-16T06:35:45.560Z,1031.5
2017-02-16T06:36:47.852Z,1031.6
2017-02-16T06:37:50.313Z,1031.6
2017-02-16T06:38:52.789Z,1031.6
2017-02-16T06:39:55.251Z,1031.6
2017-02-16T06:40:57.753Z,1031.6
2017-02-16T06:42:00.239Z,1031.6
2017-02-16T06:43:02.706Z,1031.6
2017-02-16T06:44:05.177Z,1031.6
2017-02-16T06:45:07.982Z,1031.6
2017-02-16T06:46:10.479Z,1031.6
2017-02-16T06:47:12.944Z,1031.6
2017-02-16T06:48:15.414Z,1031.6
2017-02-16T06:49:17.719Z,1031.6
2017-02-16T06:50:20.541Z,1031.6
2017-02-16T06:52:25.257Z,1031.7
2017-02-16T06:53:28.051Z,1031.6
2017-02-16T06:54:30.527Z,1031.7
2017-02-16T06:55:32.837Z,1031.7
2017-02-16T06:56:35.304Z,1031.7
2017-02-16T06:57:38.119Z,1031.7
2017-02-16T06:58:40.410Z,1031.7
2017-02-16T06:59:42.892Z,1031.7
2017-02-16T07:00:45.358Z,1031.7
2017-02-16T07:01:47.823Z,1031.6
2017-02-16T07:02:50.799Z,1031.6
2017-02-16T07:03:53.277Z,1031.6
2017-02-16T07:04:55.748Z,1031.7
2017-02-16T07:05:58.218Z,1031.7
2017-02-16T07:07:00.679Z,1031.6
2017-02-16T07:08:03.151Z,1031.6
2017-02-16T07:09:05.625Z,1031.7
2017-02-16T07:10:08.094Z,1031.7
2017-02-16T07:11:10.570Z,1031.6
2017-02-16T07:12:13.032Z,1031.6
2017-02-16T07:13:15.501Z,1031.6
2017-02-16T07:14:17.977Z,1031.7
2017-02-16T07:15:20.941Z,1031.6
2017-02-16T07:16:23.293Z,1031.6
2017-02-16T07:17:25.767Z,1031.5
2017-02-16T07:18:28.243Z,1031.6
2017-02-16T07:19:30.716Z,1031.7
2017-02-16T07:20:33.515Z,1031.6
2017-02-16T07:21:35.992Z,1031.7
2017-02-16T07:22:38.461Z,1031.6
2017-02-16T07:23:40.760Z,1031.6
2017-02-16T07:24:43.235Z,1031.6
2017-02-16T07:25:45.699Z,1031.6
2017-02-16T07:26:48.663Z,1031.6
2017-02-16T07:27:51.132Z,1031.6
2017-02-16T07:28:53.624Z,1031.6
2017-02-16T07:29:56.115Z,1031.6
2017-02-16T07:32:00.983Z,1031.6
2017-02-16T07:33:03.453Z,1031.6
2017-02-16T07:34:06.260Z,1031.6
2017-02-16T07:35:08.741Z,1031.6
2017-02-16T07:36:11.379Z,1031.6
2017-02-16T07:37:13.848Z,1031.5
2017-02-16T07:38:16.317Z,1031.6
2017-02-16T07:39:18.793Z,1031.5
2017-02-16T07:40:21.282Z,1031.6
2017-02-16T07:41:23.763Z,1031.6
2017-02-16T07:41:54.031Z,1031.6
2017-02-16T07:42:26.302Z,1031.5
2017-02-16T07:43:28.766Z,1031.6
2017-02-16T07:44:31.246Z,1031.5
2017-02-16T07:45:33.736Z,1031.6
2017-02-16T07:46:36.208Z,1031.6
2017-02-16T07:47:39.192Z,1031.6
2017-02-16T07:48:41.488Z,1031.6
2017-02-16T07:49:43.949Z,1031.5
2017-02-16T07:50:46.418Z,1031.5
2017-02-16T07:51:48.875Z,1031.5
2017-02-16T07:52:51.863Z,1031.6
2017-02-16T07:53:54.327Z,1031.6
2017-02-16T07:54:56.845Z,1031.6
2017-02-16T07:55:59.144Z,1031.6
2017-02-16T07:57:01.955Z,1031.6
2017-02-16T07:58:04.421Z,1031.5
2017-02-16T07:59:06.724Z,1031.5
2017-02-16T08:00:09.192Z,1031.5
2017-02-16T08:01:11.690Z,1031.4
2017-02-16T08:02:14.661Z,1031.5
2017-02-16T08:04:19.543Z,1031.5
2017-02-16T08:05:22.027Z,1031.5
2017-02-16T08:06:24.492Z,1031.5
2017-02-16T08:07:26.955Z,1031.5
2017-02-16T08:08:29.431Z,1031.5
2017-02-16T08:09:32.403Z,1031.4
2017-02-16T08:10:34.864Z,1031.4
2017-02-16T08:11:37.378Z,1031.4
2017-02-16T08:12:39.870Z,1031.4
2017-02-16T08:13:42.339Z,1031.4
2017-02-16T08:14:44.829Z,1031.3
2017-02-16T08:15:47.329Z,1031.3
2017-02-16T08:16:49.795Z,1031.4
2017-02-16T08:17:52.774Z,1031.3
2017-02-16T08:18:55.287Z,1031.3
2017-02-16T08:19:57.757Z,1031.3
2017-02-16T08:21:00.225Z,1031.4
2017-02-16T08:22:02.688Z,1031.4
2017-02-16T08:23:05.150Z,1031.3
2017-02-16T08:24:07.963Z,1031.3
2017-02-16T08:25:10.475Z,1031.3
2017-02-16T08:26:12.941Z,1031.3
2017-02-16T08:27:15.258Z,1031.3
2017-02-16T08:28:18.225Z,1031.3
2017-02-16T08:29:20.693Z,1031.3
2017-02-16T08:30:23.161Z,1031.3
2017-02-16T08:31:25.628Z,1031.3
2017-02-16T08:32:28.127Z,1031.3
2017-02-16T08:33:30.589Z,1031.3
2017-02-16T08:34:33.557Z,1031.3
2017-02-16T08:35:36.023Z,1031.3
2017-02-16T08:36:38.524Z,1031.2
2017-02-16T08:37:41.009Z,1031.3
2017-02-16T08:38:43.498Z,1031.2
2017-02-16T08:39:45.966Z,1031.2
2017-02-16T08:40:48.802Z,1031.2
2017-02-16T08:41:51.291Z,1031.2
2017-02-16T08:42:53.751Z,1031.2
2017-02-16T08:43:56.253Z,1031.3
2017-02-16T08:44:58.713Z,1031.3
2017-02-16T08:46:01.186Z,1031.2
2017-02-16T08:48:06.408Z,1031.3
2017-02-16T08:49:08.874Z,1031.4
2017-02-16T08:50:11.679Z,1031.3
2017-02-16T08:51:13.976Z,1031.3
2017-02-16T08:52:16.937Z,1031.4
2017-02-16T08:53:19.400Z,1031.3
2017-02-16T08:54:21.895Z,1031.4
2017-02-16T08:55:24.357Z,1031.4
2017-02-16T08:56:26.841Z,1031.3
2017-02-16T08:57:29.310Z,1031.3
2017-02-16T08:58:32.295Z,1031.3
2017-02-16T08:59:34.791Z,1031.3
2017-02-16T09:00:37.265Z,1031.3
2017-02-16T09:01:39.742Z,1031.3
2017-02-16T09:02:42.223Z,1031.3
2017-02-16T09:03:44.689Z,1031.3
2017-02-16T09:04:47.494Z,1031.3
2017-02-16T09:05:49.956Z,1031.3
2017-02-16T09:06:52.429Z,1031.3
2017-02-16T09:07:54.902Z,1031.3
2017-02-16T09:08:57.893Z,1031.3
2017-02-16T09:10:00.362Z,1031.4
2017-02-16T09:11:02.675Z,1031.4
2017-02-16T09:12:05.150Z,1031.4
2017-02-16T09:13:07.949Z,1031.4
2017-02-16T09:14:10.262Z,1031.4
2017-02-16T09:15:13.234Z,1031.3
2017-02-16T09:16:15.747Z,1031.4
2017-02-16T09:17:18.232Z,1031.3
2017-02-16T09:18:20.714Z,1031.3
2017-02-16T09:19:23.185Z,1031.4
2017-02-16T09:20:25.647Z,1031.3
2017-02-16T09:21:28.124Z,1031.3
2017-02-16T09:22:31.096Z,1031.3
2017-02-16T09:23:33.584Z,1031.3
2017-02-16T09:24:36.065Z,1031.3
2017-02-16T09:25:38.527Z,1031.2
2017-02-16T09:26:41.011Z,1031.3
2017-02-16T09:27:43.818Z,1031.3
2017-02-16T09:28:46.303Z,1031.3
2017-02-16T09:29:48.777Z,1031.3
2017-02-16T09:30:51.249Z,1031.3
2017-02-16T09:31:53.721Z,1031.3
2017-02-16T09:32:56.710Z,1031.3
2017-02-16T09:33:59.022Z,1031.3
2017-02-16T09:35:01.500Z,1031.3
2017-02-16T09:36:04.319Z,1031.3
2017-02-16T09:37:06.805Z,1031.3
2017-02-16T09:38:09.110Z,1031.3
2017-02-16T09:39:11.911Z,1031.3
2017-02-16T09:40:14.536Z,1031.3
2017-02-16T09:41:17.050Z,1031.3
2017-02-16T09:42:19.533Z,1031.2
2017-02-16T09:43:22.065Z,1031.2
2017-02-16T09:44:24.538Z,1031.3
2017-02-16T09:45:27.017Z,1031.3
2017-02-16T09:46:30.031Z,1031.3
2017-02-16T09:47:32.492Z,1031.2
2017-02-16T09:49:37.400Z,1031.2
2017-02-16T09:50:39.889Z,1031.2
2017-02-16T09:51:42.857Z,1031.2
2017-02-16T09:52:45.330Z,1031.2
2017-02-16T09:53:47.812Z,1031.2
2017-02-16T09:54:50.324Z,1031.2
2017-02-16T09:55:52.813Z,1031.2
2017-02-16T09:56:55.282Z,1031.1
2017-02-16T09:57:57.747Z,1031.2
2017-02-16T09:59:00.565Z,1031.2
2017-02-16T10:00:02.878Z,1031.2
2017-02-16T10:01:05.697Z,1031.2
2017-02-16T10:02:08.174Z,1031.2
2017-02-16T10:03:10.876Z,1031.1
2017-02-16T10:04:13.345Z,1031.2
2017-02-16T10:06:18.551Z,1031.2
2017-02-16T10:07:21.028Z,1031.2
2017-02-16T10:08:23.832Z,1031.1
2017-02-16T10:09:26.302Z,1031.1
2017-02-16T10:10:28.779Z,1031.1
2017-02-16T10:11:31.265Z,1031.1
2017-02-16T10:12:34.066Z,1031.1
2017-02-16T10:13:36.536Z,1031.1
2017-02-16T10:14:39.020Z,1031.1
2017-02-16T10:15:41.516Z,1031.1
2017-02-16T10:16:43.987Z,1031.1
2017-02-16T10:17:46.455Z,1031.1
2017-02-16T10:18:49.284Z,1031.1
2017-02-16T10:19:51.597Z,1031.1
2017-02-16T10:20:54.405Z,1031
2017-02-16T10:21:56.890Z,1031
2017-02-16T10:24:02.279Z,1031
2017-02-16T10:25:04.751Z,1031
2017-02-16T10:26:07.221Z,1031
2017-02-16T10:27:10.017Z,1031
2017-02-16T10:28:12.480Z,1031
2017-02-16T10:29:14.965Z,1031
2017-02-16T10:30:17.438Z,1030.9
2017-02-16T10:31:20.185Z,1030.9
2017-02-16T10:32:22.645Z,1030.9
2017-02-16T10:33:25.106Z,1030.9
2017-02-16T10:34:27.575Z,1030.8
2017-02-16T10:35:30.092Z,1030.8
2017-02-16T10:36:33.059Z,1030.8
2017-02-16T10:37:35.535Z,1030.8
2017-02-16T10:38:37.998Z,1030.8
2017-02-16T10:39:40.466Z,1030.8
2017-02-16T10:40:42.939Z,1030.8
2017-02-16T10:41:45.903Z,1030.8
2017-02-16T10:42:48.389Z,1030.8
2017-02-16T10:43:50.857Z,1030.8
2017-02-16T10:44:53.328Z,1030.7
2017-02-16T10:48:01.117Z,1030.7
2017-02-16T10:49:03.592Z,1030.8
2017-02-16T10:50:06.467Z,1030.7
2017-02-16T10:51:08.783Z,1030.7
2017-02-16T10:52:11.578Z,1030.7
2017-02-16T10:53:14.220Z,1030.7
2017-02-16T10:54:16.696Z,1030.7
2017-02-16T10:55:19.170Z,1030.6
2017-02-16T10:56:21.639Z,1030.6
2017-02-16T10:57:24.116Z,1030.6
2017-02-16T10:58:27.080Z,1030.6
2017-02-16T10:59:29.566Z,1030.6
2017-02-16T11:00:32.077Z,1030.6
2017-02-16T11:01:34.555Z,1030.6
2017-02-16T11:02:37.060Z,1030.6
2017-02-16T11:03:39.529Z,1030.5
2017-02-16T11:04:42.504Z,1030.6
2017-02-16T11:06:47.265Z,1030.5
2017-02-16T11:07:50.237Z,1030.6
2017-02-16T11:08:52.734Z,1030.6
2017-02-16T11:09:55.216Z,1030.5
2017-02-16T11:10:57.697Z,1030.5
2017-02-16T11:12:00.207Z,1030.5
2017-02-16T11:13:02.674Z,1030.4
2017-02-16T11:14:05.471Z,1030.4
2017-02-16T11:16:10.854Z,1030.5
2017-02-16T11:17:13.319Z,1030.4
2017-02-16T11:18:15.799Z,1030.4
2017-02-16T11:19:18.264Z,1030.4
2017-02-16T11:20:20.725Z,1030.4
2017-02-16T11:21:23.705Z,1030.4
2017-02-16T11:22:26.209Z,1030.4
2017-02-16T11:23:28.670Z,1030.4
2017-02-16T11:24:31.132Z,1030.4
2017-02-16T11:25:33.604Z,1030.3
2017-02-16T11:26:36.585Z,1030.3
2017-02-16T11:27:39.065Z,1030.3
2017-02-16T11:28:41.546Z,1030.3
2017-02-16T11:29:44.006Z,1030.3
2017-02-16T11:30:46.506Z,1030.2
2017-02-16T11:31:49.303Z,1030.2
2017-02-16T11:32:51.771Z,1030.2
2017-02-16T11:33:54.244Z,1030.2
2017-02-16T11:34:57.228Z,1030.2
2017-02-16T11:35:59.524Z,1030.2
2017-02-16T11:37:01.990Z,1030.1
2017-02-16T11:38:04.821Z,1030.1
2017-02-16T11:39:07.614Z,1030.1
2017-02-16T11:40:09.762Z,1030.1
2017-02-16T11:41:12.746Z,1030
2017-02-16T11:42:15.227Z,1030
2017-02-16T11:43:17.691Z,1030
2017-02-16T11:44:20.168Z,1030
2017-02-16T11:45:22.655Z,1030
2017-02-16T11:47:28.060Z,1030
2017-02-16T11:48:30.527Z,1030
2017-02-16T11:49:33.000Z,1030
2017-02-16T11:50:35.972Z,1030
2017-02-16T11:51:38.437Z,1030
2017-02-16T11:52:40.922Z,1029.9
2017-02-16T11:53:43.380Z,1029.9
2017-02-16T11:54:46.351Z,1029.9
2017-02-16T11:55:48.831Z,1029.9
2017-02-16T11:56:51.301Z,1030
2017-02-16T11:57:53.760Z,1029.9
2017-02-16T11:58:56.282Z,1029.8
2017-02-16T11:59:59.251Z,1029.8
2017-02-16T12:01:01.715Z,1029.9
2017-02-16T12:02:04.192Z,1029.8
2017-02-16T12:03:06.673Z,1029.8
2017-02-16T12:04:09.146Z,1029.8
2017-02-16T12:05:12.135Z,1029.7
2017-02-16T12:07:17.011Z,1029.7
2017-02-16T12:08:19.496Z,1029.7
2017-02-16T12:09:22.471Z,1029.7
2017-02-16T12:10:24.933Z,1029.7
2017-02-16T12:11:27.410Z,1029.6
2017-02-16T12:12:29.886Z,1029.6
2017-02-16T12:13:32.874Z,1029.6
2017-02-16T12:14:35.351Z,1029.6
2017-02-16T12:15:37.816Z,1029.6
2017-02-16T12:16:40.306Z,1029.6
2017-02-16T12:17:42.785Z,1029.5
2017-02-16T12:18:45.789Z,1029.5
2017-02-16T12:19:48.290Z,1029.6
2017-02-16T12:20:50.772Z,1029.6
2017-02-16T12:21:53.238Z,1029.6
2017-02-16T12:22:56.205Z,1029.5
2017-02-16T12:23:58.707Z,1029.5
2017-02-16T12:25:01.185Z,1029.5
2017-02-16T12:26:03.981Z,1029.5
2017-02-16T12:27:06.287Z,1029.5
2017-02-16T12:28:09.130Z,1029.5
2017-02-16T12:29:11.591Z,1029.5
2017-02-16T12:30:14.071Z,1029.5
2017-02-16T12:31:16.885Z,1029.4
2017-02-16T12:32:19.360Z,1029.5
2017-02-16T12:33:21.848Z,1029.4
2017-02-16T12:34:24.313Z,1029.5
2017-02-16T12:35:26.806Z,1029.4
2017-02-16T12:36:29.789Z,1029.5
2017-02-16T12:37:32.303Z,1029.5
2017-02-16T12:38:34.766Z,1029.4
2017-02-16T12:39:37.253Z,1029.5
2017-02-16T12:40:40.228Z,1029.4
2017-02-16T12:41:42.710Z,1029.5
2017-02-16T12:42:45.015Z,1029.4
2017-02-16T12:43:47.807Z,1029.4
2017-02-16T12:44:50.260Z,1029.4
2017-02-16T12:45:52.719Z,1029.3
2017-02-16T12:46:55.688Z,1029.3
2017-02-16T12:47:58.144Z,1029.3
2017-02-16T12:49:00.597Z,1029.3
2017-02-16T12:50:03.576Z,1029.3
2017-02-16T12:51:05.700Z,1029.3
2017-02-16T12:52:08.680Z,1029.3
2017-02-16T12:53:11.146Z,1029.2
2017-02-16T12:54:13.642Z,1029.2
2017-02-16T12:55:16.119Z,1029.2
2017-02-16T12:56:19.078Z,1029.2
2017-02-16T12:57:21.380Z,1029.2
2017-02-16T12:58:23.839Z,1029.2
2017-02-16T12:59:26.833Z,1029.2
2017-02-16T13:00:29.304Z,1029.1
2017-02-16T13:01:31.777Z,1029.1
2017-02-16T13:02:34.242Z,1029.1
2017-02-16T13:03:37.229Z,1029.1
2017-02-16T13:04:39.683Z,1029.1
2017-02-16T13:05:42.142Z,1029.1
2017-02-16T13:06:44.625Z,1029.1
2017-02-16T13:07:47.618Z,1029.1
2017-02-16T13:08:50.091Z,1029
2017-02-16T13:09:52.559Z,1029
2017-02-16T13:10:55.020Z,1029
2017-02-16T13:11:58.012Z,1029
2017-02-16T13:13:00.469Z,1029
2017-02-16T13:14:02.934Z,1028.9
2017-02-16T13:15:05.398Z,1028.9
2017-02-16T13:16:08.367Z,1028.9
2017-02-16T13:17:10.847Z,1028.9
2017-02-16T13:18:13.646Z,1028.9
2017-02-16T13:19:16.133Z,1028.9
2017-02-16T13:20:18.417Z,1028.9
2017-02-16T13:21:21.381Z,1028.8
2017-02-16T13:22:23.674Z,1028.8
2017-02-16T13:23:26.485Z,1028.8
2017-02-16T13:24:28.973Z,1028.8
2017-02-16T13:25:31.429Z,1028.8
2017-02-16T13:26:34.391Z,1028.8
2017-02-16T13:27:36.684Z,1028.9
2017-02-16T13:28:39.643Z,1028.8
2017-02-16T13:29:42.107Z,1028.7
2017-02-16T13:30:44.564Z,1028.7
2017-02-16T13:32:49.939Z,1028.6
2017-02-16T13:33:52.395Z,1028.6
2017-02-16T13:34:54.854Z,1028.6
2017-02-16T13:35:57.825Z,1028.6
2017-02-16T13:37:00.286Z,1028.6
2017-02-16T13:38:02.774Z,1028.6
2017-02-16T13:40:07.991Z,1028.6
2017-02-16T13:41:10.447Z,1028.5
2017-02-16T13:42:13.089Z,1028.5
2017-02-16T13:43:15.892Z,1028.5
2017-02-16T13:44:18.343Z,1028.6
2017-02-16T13:46:23.715Z,1028.6
2017-02-16T13:47:26.508Z,1028.6
2017-02-16T13:48:28.795Z,1028.5
2017-02-16T13:49:31.758Z,1028.5
2017-02-16T13:50:34.221Z,1028.5
2017-02-16T13:51:36.681Z,1028.5
2017-02-16T13:52:39.160Z,1028.5
2017-02-16T13:53:41.965Z,1028.5
2017-02-16T13:54:44.466Z,1028.5
2017-02-16T13:55:46.968Z,1028.5
2017-02-16T13:56:49.943Z,1028.5
2017-02-16T13:57:52.425Z,1028.5
2017-02-16T13:58:55.048Z,1028.5
2017-02-16T13:59:57.503Z,1028.5
2017-02-16T14:00:59.960Z,1028.5
2017-02-16T14:02:02.924Z,1028.5
2017-02-16T14:03:05.395Z,1028.5
2017-02-16T14:04:08.194Z,1028.5
2017-02-16T14:06:13.398Z,1028.4
2017-02-16T14:07:15.699Z,1028.4
2017-02-16T14:08:18.178Z,1028.3
2017-02-16T14:09:21.146Z,1028.4
2017-02-16T14:10:23.599Z,1028.3
2017-02-16T14:11:26.415Z,1028.3
2017-02-16T14:12:28.720Z,1028.3
2017-02-16T14:13:31.178Z,1028.4
2017-02-16T14:14:34.156Z,1028.3
2017-02-16T14:15:36.630Z,1028.1
2017-02-16T14:16:39.128Z,1028.3
2017-02-16T14:17:41.592Z,1028.3
2017-02-16T14:18:44.564Z,1028.1
2017-02-16T14:19:47.030Z,1028.1
2017-02-16T14:20:49.482Z,1028.1
2017-02-16T14:21:52.449Z,1028.1
2017-02-16T14:22:54.910Z,1028.1
2017-02-16T14:23:57.380Z,1028.1
2017-02-16T14:25:00.185Z,1028.1
2017-02-16T14:26:02.643Z,1028.1
2017-02-16T14:27:05.100Z,1028.1
2017-02-16T14:28:08.063Z,1028
2017-02-16T14:29:10.194Z,1028.1
2017-02-16T14:30:12.992Z,1028
2017-02-16T14:31:15.444Z,1028
2017-02-16T14:32:18.413Z,1028
2017-02-16T14:33:20.709Z,1027.9
2017-02-16T14:34:23.676Z,1027.9
2017-02-16T14:35:26.137Z,1027.9
2017-02-16T14:36:28.607Z,1027.9
2017-02-16T14:37:31.080Z,1027.9
2017-02-16T14:38:33.873Z,1027.9
2017-02-16T14:39:36.343Z,1027.8
2017-02-16T14:40:39.315Z,1027.9
2017-02-16T14:41:41.781Z,1027.8
2017-02-16T14:42:44.259Z,1027.8
2017-02-16T14:43:47.058Z,1027.8
2017-02-16T14:44:49.517Z,1027.8
2017-02-16T14:45:52.310Z,1027.8
2017-02-16T14:46:54.771Z,1027.8
2017-02-16T14:47:57.582Z,1027.8
2017-02-16T14:48:59.887Z,1027.7
2017-02-16T14:50:02.355Z,1027.8
2017-02-16T14:51:05.336Z,1027.8
2017-02-16T14:52:07.630Z,1027.7
2017-02-16T14:53:10.265Z,1027.7
2017-02-16T14:54:12.782Z,1027.8
2017-02-16T14:55:15.571Z,1027.7
2017-02-16T14:56:18.035Z,1027.7
2017-02-16T14:57:21.007Z,1027.7
2017-02-16T14:58:23.463Z,1027.8
2017-02-16T14:59:25.927Z,1027.7
2017-02-16T15:00:28.381Z,1027.7
2017-02-16T15:01:31.343Z,1027.7
2017-02-16T15:02:33.849Z,1027.7
2017-02-16T15:03:36.313Z,1027.7
2017-02-16T15:04:39.279Z,1027.6
2017-02-16T15:05:41.755Z,1027.6
2017-02-16T15:06:44.215Z,1027.6
2017-02-16T15:07:46.693Z,1027.6
2017-02-16T15:08:49.512Z,1027.6
2017-02-16T15:09:51.978Z,1027.7
2017-02-16T15:10:54.450Z,1027.6
2017-02-16T15:11:57.417Z,1027.7
2017-02-16T15:12:59.871Z,1027.6
2017-02-16T15:14:02.328Z,1027.6
2017-02-16T15:16:07.697Z,1027.6
2017-02-16T15:17:10.197Z,1027.6
2017-02-16T15:18:12.674Z,1027.5
2017-02-16T15:19:15.509Z,1027.5
2017-02-16T15:20:18.321Z,1027.5
2017-02-16T15:21:20.781Z,1027.4
2017-02-16T15:22:23.238Z,1027.5
2017-02-16T15:23:26.031Z,1027.4
2017-02-16T15:24:28.489Z,1027.4
2017-02-16T15:25:31.286Z,1027.4
2017-02-16T15:26:33.754Z,1027.4
2017-02-16T15:27:36.211Z,1027.4
2017-02-16T15:28:39.181Z,1027.3
2017-02-16T15:29:41.637Z,1027.4
2017-02-16T15:30:44.114Z,1027.4
2017-02-16T15:31:46.745Z,1027.4
2017-02-16T15:32:49.200Z,1027.4
2017-02-16T15:33:52.160Z,1027.3
2017-02-16T15:34:54.621Z,1027.3
2017-02-16T15:35:57.090Z,1027.3
2017-02-16T15:36:59.892Z,1027.3
2017-02-16T15:39:04.764Z,1027.3
2017-02-16T15:40:07.735Z,1027.3
2017-02-16T15:41:10.360Z,1027.3
2017-02-16T15:42:12.818Z,1027.3
2017-02-16T15:43:15.274Z,1027.3
2017-02-16T15:44:18.233Z,1027.3
2017-02-16T15:45:20.693Z,1027.3
2017-02-16T15:46:23.011Z,1027.3
2017-02-16T15:47:25.991Z,1027.3